createdAt,value
2018-05-11T00:00:11.900Z,99.99
2018-05-11T00:02:04.825Z,99.99
2018-05-11T00:03:04.834Z,99.99
2018-05-11T00:04:57.790Z,99.99
2018-05-11T00:05:57.775Z,99.99
2018-05-11T00:07:50.709Z,99.99
2018-05-11T00:08:50.718Z,99.99
2018-05-11T00:10:44.165Z,99.99
2018-05-11T00:11:44.154Z,99.99
2018-05-11T00:13:37.097Z,99.99
2018-05-11T00:14:37.091Z,99.99
2018-05-11T00:16:30.031Z,99.99
2018-05-11T00:17:30.029Z,99.99
2018-05-11T00:19:22.978Z,99.99
2018-05-11T00:20:22.965Z,99.99
2018-05-11T00:22:15.889Z,99.99
2018-05-11T00:23:15.901Z,99.99
2018-05-11T00:25:08.849Z,99.99
2018-05-11T00:26:08.841Z,99.99
2018-05-11T00:28:01.788Z,99.99
2018-05-11T00:29:01.776Z,99.99
2018-05-11T00:30:54.723Z,99.99
2018-05-11T00:31:54.718Z,99.99
2018-05-11T00:33:47.661Z,99.99
2018-05-11T00:34:47.658Z,99.99
2018-05-11T00:36:40.585Z,99.99
2018-05-11T00:37:40.598Z,99.99
2018-05-11T00:39:33.543Z,99.99
2018-05-11T00:40:33.528Z,99.99
2018-05-11T00:42:26.456Z,99.99
2018-05-11T00:43:26.469Z,99.99
2018-05-11T00:45:19.418Z,99.99
2018-05-11T00:46:19.402Z,99.99
2018-05-11T00:48:12.331Z,99.99
2018-05-11T00:49:12.341Z,99.99
2018-05-11T00:51:05.305Z,99.99
2018-05-11T00:52:05.280Z,99.99
2018-05-11T00:53:58.227Z,99.99
2018-05-11T00:54:58.231Z,99.99
2018-05-11T00:56:51.156Z,99.99
2018-05-11T00:57:51.169Z,99.99
2018-05-11T00:59:44.111Z,99.99
2018-05-11T01:00:44.101Z,99.99
2018-05-11T01:02:37.030Z,99.99
2018-05-11T01:03:37.051Z,99.99
2018-05-11T01:05:29.991Z,99.99
2018-05-11T01:06:29.983Z,99.99
2018-05-11T01:08:22.906Z,99.99
2018-05-11T01:09:22.920Z,99.99
2018-05-11T01:11:15.863Z,99.99
2018-05-11T01:12:15.860Z,99.99
2018-05-11T01:14:08.801Z,99.99
2018-05-11T01:15:08.791Z,99.99
2018-05-11T01:17:01.739Z,99.99
2018-05-11T01:18:01.736Z,99.99
2018-05-11T01:19:54.678Z,99.99
2018-05-11T01:20:54.666Z,99.99
2018-05-11T01:22:47.594Z,99.99
2018-05-11T01:23:47.602Z,99.99
2018-05-11T01:25:40.554Z,99.99
2018-05-11T01:26:40.542Z,99.99
2018-05-11T01:28:33.467Z,99.99
2018-05-11T01:29:33.484Z,99.99
2018-05-11T01:31:26.430Z,99.99
2018-05-11T01:32:26.417Z,99.99
2018-05-11T01:34:19.343Z,99.99
2018-05-11T01:35:19.362Z,99.99
2018-05-11T01:37:12.305Z,99.99
2018-05-11T01:38:12.292Z,99.99
2018-05-11T01:40:05.235Z,99.99
2018-05-11T01:41:05.227Z,99.99
2018-05-11T01:42:58.154Z,99.99
2018-05-11T01:43:58.168Z,99.99
2018-05-11T01:45:51.119Z,99.99
2018-05-11T01:46:51.107Z,99.99
2018-05-11T03:48:04.467Z,99.99
2018-05-11T03:49:04.446Z,99.99
2018-05-11T03:50:57.356Z,99.99
2018-05-11T03:51:57.361Z,99.99
2018-05-11T03:53:50.297Z,99.99
2018-05-11T03:54:50.279Z,99.99
2018-05-11T03:56:43.211Z,99.99
2018-05-11T03:57:43.202Z,99.99
2018-05-11T03:59:36.119Z,99.99
2018-05-11T04:00:36.126Z,99.99
2018-05-11T04:02:29.069Z,99.99
2018-05-11T04:03:29.060Z,99.99
2018-05-11T04:05:21.981Z,99.99
2018-05-11T04:06:21.988Z,99.99
2018-05-11T04:08:14.931Z,99.99
2018-05-11T04:09:14.924Z,99.99
2018-05-11T04:11:08.338Z,99.99
2018-05-11T04:12:08.343Z,99.99
2018-05-11T04:14:01.290Z,99.99
2018-05-11T04:15:01.274Z,99.99
2018-05-11T04:16:54.239Z,99.99
2018-05-11T04:17:54.209Z,99.99
2018-05-11T04:19:47.130Z,99.99
2018-05-11T04:20:47.198Z,99.99
2018-05-11T04:22:40.080Z,99.99
2018-05-11T04:23:40.072Z,99.99
2018-05-11T04:25:32.997Z,99.99
2018-05-11T04:26:33.011Z,99.99
2018-05-11T04:28:25.969Z,99.99
2018-05-11T04:29:26.901Z,99.99
2018-05-11T04:31:18.882Z,99.99
2018-05-11T04:32:18.895Z,99.99
2018-05-11T04:34:11.843Z,99.99
2018-05-11T04:35:11.837Z,99.99
2018-05-11T04:37:04.754Z,99.99
2018-05-11T04:38:04.768Z,99.99
2018-05-11T04:39:57.710Z,99.99
2018-05-11T04:40:57.701Z,99.99
2018-05-11T04:42:50.649Z,99.99
2018-05-11T04:43:50.640Z,99.99
2018-05-11T04:45:43.571Z,99.99
2018-05-11T04:46:43.579Z,99.99
2018-05-11T04:48:36.523Z,99.99
2018-05-11T04:49:36.507Z,99.99
2018-05-11T04:51:29.430Z,99.99
2018-05-11T04:52:29.439Z,99.99
2018-05-11T04:54:22.389Z,99.99
2018-05-11T04:55:22.387Z,99.99
2018-05-11T04:57:15.306Z,99.99
2018-05-11T04:58:15.317Z,99.99
2018-05-11T05:00:08.275Z,99.99
2018-05-11T05:01:08.262Z,99.99
2018-05-11T05:03:01.210Z,99.99
2018-05-11T05:04:01.205Z,99.99
2018-05-11T05:05:54.123Z,99.99
2018-05-11T05:06:54.137Z,99.99
2018-05-11T05:08:47.084Z,99.99
2018-05-11T05:09:47.077Z,99.99
2018-05-11T05:11:40.001Z,99.99
2018-05-11T05:12:40.012Z,99.99
2018-05-11T05:14:32.959Z,99.99
2018-05-11T05:15:32.954Z,99.99
2018-05-11T05:17:25.880Z,99.99
2018-05-11T05:18:25.892Z,99.99
2018-05-11T05:20:18.836Z,99.99
2018-05-11T05:21:18.827Z,99.99
2018-05-11T05:23:11.780Z,99.99
2018-05-11T05:24:11.772Z,99.99
2018-05-11T05:26:04.698Z,99.99
2018-05-11T05:27:04.709Z,99.99
2018-05-11T05:28:57.672Z,99.99
2018-05-11T05:29:57.653Z,99.99
2018-05-11T05:31:50.584Z,99.99
2018-05-11T05:32:50.674Z,99.99
2018-05-11T05:34:43.544Z,99.99
2018-05-11T05:35:43.534Z,99.99
2018-05-11T05:37:36.470Z,99.99
2018-05-11T05:38:36.473Z,99.99
2018-05-11T05:40:29.422Z,99.99
2018-05-11T05:41:29.414Z,99.99
2018-05-11T05:43:22.369Z,99.99
2018-05-11T05:44:22.355Z,99.99
2018-05-11T05:46:15.335Z,99.99
2018-05-11T05:47:15.288Z,99.99
2018-05-11T05:49:08.242Z,99.99
2018-05-11T05:50:08.236Z,99.99
2018-05-11T05:52:01.255Z,99.99
2018-05-11T05:53:01.178Z,99.99
2018-05-11T05:54:54.125Z,99.99
2018-05-11T05:55:54.117Z,99.99
2018-05-11T05:57:47.042Z,99.99
2018-05-11T05:58:47.058Z,99.99
2018-05-11T06:00:40.014Z,99.99
2018-05-11T06:01:40.006Z,99.99
2018-05-11T06:03:32.948Z,99.99
2018-05-11T06:04:33.046Z,99.99
2018-05-11T06:06:25.918Z,99.99
2018-05-11T06:07:25.906Z,98.43
2018-05-11T06:09:18.859Z,91.34
2018-05-11T06:10:18.851Z,90.28
2018-05-11T06:12:11.783Z,88.84
2018-05-11T06:13:11.797Z,88.70
2018-05-11T06:15:04.755Z,88.80
2018-05-11T06:16:04.744Z,89.37
2018-05-11T06:17:57.682Z,89.57
2018-05-11T06:18:57.694Z,88.70
2018-05-11T06:20:50.653Z,91.49
2018-05-11T06:21:50.648Z,93.30
2018-05-11T06:23:43.588Z,91.19
2018-05-11T06:24:43.610Z,90.53
2018-05-11T06:26:36.560Z,88.42
2018-05-11T06:27:36.551Z,88.75
2018-05-11T06:29:29.509Z,86.64
2018-05-11T06:30:29.507Z,86.16
2018-05-11T06:32:22.449Z,87.37
2018-05-11T06:33:22.468Z,88.84
2018-05-11T06:35:15.423Z,88.51
2018-05-11T06:36:15.421Z,86.38
2018-05-11T06:38:08.439Z,82.15
2018-05-11T06:39:08.452Z,78.84
2018-05-11T06:41:01.417Z,80.24
2018-05-11T06:42:01.410Z,81.16
2018-05-11T06:43:54.350Z,84.77
2018-05-11T06:44:54.365Z,85.72
2018-05-11T06:46:47.331Z,87.27
2018-05-11T06:47:47.330Z,88.56
2018-05-11T06:49:40.290Z,86.74
2018-05-11T06:50:40.286Z,87.79
2018-05-11T06:52:33.231Z,88.75
2018-05-11T06:53:33.245Z,88.56
2018-05-11T06:55:26.204Z,90.33
2018-05-11T06:56:26.198Z,90.72
2018-05-11T06:58:19.141Z,91.67
2018-05-11T06:59:19.155Z,91.67
2018-05-11T07:01:12.113Z,92.30
2018-05-11T07:02:12.110Z,94.02
2018-05-11T07:04:05.082Z,96.22
2018-05-11T07:05:05.065Z,95.17
2018-05-11T07:06:58.026Z,95.46
2018-05-11T07:07:58.056Z,95.70
2018-05-11T07:09:50.988Z,92.19
2018-05-11T07:10:50.976Z,89.08
2018-05-11T07:12:43.918Z,92.54
2018-05-11T07:13:43.934Z,94.31
2018-05-11T07:15:36.886Z,96.61
2018-05-11T07:16:36.884Z,97.18
2018-05-11T07:18:29.821Z,94.50
2018-05-11T07:19:29.924Z,93.21
2018-05-11T07:21:22.815Z,92.25
2018-05-11T07:22:22.847Z,95.27
2018-05-11T07:24:15.790Z,97.66
2018-05-11T07:25:15.756Z,95.89
2018-05-11T07:27:08.720Z,92.15
2018-05-11T07:28:08.708Z,91.96
2018-05-11T07:30:01.755Z,96.32
2018-05-11T07:31:01.664Z,96.03
2018-05-11T07:32:54.639Z,93.11
2018-05-11T07:33:54.620Z,89.22
2018-05-11T07:35:47.577Z,86.48
2018-05-11T07:36:47.578Z,86.78
2018-05-11T07:38:40.518Z,91.49
2018-05-11T07:39:40.533Z,93.98
2018-05-11T07:41:33.487Z,92.54
2018-05-11T07:42:33.491Z,91.91
2018-05-11T07:44:26.422Z,91.38
2018-05-11T07:45:26.437Z,88.51
2018-05-11T07:47:19.496Z,90.42
2018-05-11T07:48:19.397Z,90.47
2018-05-11T07:50:15.965Z,88.42
2018-05-11T07:51:13.566Z,88.90
